Hovedside
METAR-TAF:

METAR-TAF

Lufthavner :

Lennart Meri Tallinn lufthavn

Tallinn, Estland

breddegrad: 59-23N, lengdegrad: 024-35E, høyde over havet: 44 m

Gjeldene værobservasjon

Denne rapporten ble laget for 13 minutter siden, klokken 17:20 UTC
Vind 3 kt fra Nord-nordøst, skiftende mellom Nordvest og Øst-nordøst
Temperatur 22°C
Luftfuktighet 41%
Trykk 1026 hPa
Sikt 10 km eller mer
ingen skyer under 1500 m og ingen bygeskyer

METAR: EETN 261720Z 03003KT 320V060 CAVOK 22/08 Q1026 NOSIG

Tid: 20:33 (17:33 UTC)

Varsel

Denne rapporten ble laget for 6 timer og 3 minutter siden, klokken 11:30 UTC
Varsel gyldig fra 26. klokken 12 UTC til 27. klokken 12 UTC
Vind 10 kt fra Nord
Sikt 10 km eller mer
ingen skyer under 1500 m og ingen bygeskyer
Midlertidig
fra 26. klokken 18 UTC til 26. klokken 24 UTC
Vind 2 kt fra skiftende retning

TAF: EETN 261130Z 2612/2712 01010KT CAVOK TEMPO 2618/2624 VRB02KT

Værobservasjoner og værvarsel for over 4000 flyplasser (METAR- og TAF-rapporter).

Tilgjengelige stasjoner er representert av de røde og gule prikkene på kartet.

Hold musepekeren over prikken for å se navnet på stasjonen.

Klikk så for å se værobservasjoner og -varsler.

For å forandre kartet kan du klikke på den grønne knappen med svart kryss for å zoome inn, på den grønne knappen med strek for å zoome ut, eller på de grønne pilene for å se tilstøtende kart.


METAR-TAF: